Time;durP1;ratioP1;P1;durP2;ratioP2;P2;SDS_P1;SDS_P2;PMS_P1;PMS_P2;Temp;Humidity;BMP_temperature;BMP_pressure;BME280_temperature;BME280_humidity;BME280_pressure;Samples;Min_cycle;Max_cycle;Signal;HPM_P1;HPM_P2
2023/09/04 00:01:16;;;;;;;17.90;4.90;;;;;;;22.64;48.70;99771.24;67797;1255;1016318;-64
2023/09/04 00:04:19;;;;;;;16.40;4.90;;;;;;;22.61;48.63;99768.19;67782;1278;1019833;-63
2023/09/04 00:07:21;;;;;;;17.40;5.20;;;;;;;22.69;48.54;99771.34;67824;1278;1016595;-64
2023/09/04 00:10:24;;;;;;;19.70;5.00;;;;;;;22.80;48.14;99775.39;67783;1278;1016374;-63
2023/09/04 00:13:26;;;;;;;20.00;6.00;;;;;;;22.76;48.22;99784.13;67800;1278;1016377;-64
2023/09/04 00:16:29;;;;;;;25.80;6.80;;;;;;;22.61;48.30;99786.14;67786;1278;1016489;-64
2023/09/04 00:19:32;;;;;;;16.20;5.00;;;;;;;22.59;48.33;99785.62;67820;1278;1016367;-64
2023/09/04 00:22:35;;;;;;;18.00;5.70;;;;;;;22.51;48.53;99785.30;67787;1278;1016478;-64
2023/09/04 00:25:37;;;;;;;20.00;5.40;;;;;;;22.50;48.49;99785.23;67826;1278;1016582;-64
2023/09/04 00:28:40;;;;;;;;;;;;;;;22.45;48.67;99783.42;67822;1278;1016487;-64
2023/09/04 00:31:42;;;;;;;14.10;4.50;;;;;;;22.41;48.63;99781.84;67782;1278;1016442;-64
2023/09/04 00:34:44;;;;;;;19.60;5.00;;;;;;;22.39;48.88;99783.76;67790;1278;1016461;-63
2023/09/04 00:37:47;;;;;;;17.70;5.20;;;;;;;22.44;48.86;99788.15;67769;1278;1016113;-63
2023/09/04 00:40:49;;;;;;;19.00;6.10;;;;;;;22.50;48.41;99792.04;67837;1278;1016376;-64
2023/09/04 00:43:52;;;;;;;26.80;5.10;;;;;;;22.54;48.53;99798.02;67842;1278;1016474;-64
2023/09/04 00:46:54;;;;;;;18.00;4.90;;;;;;;22.54;48.45;99805.54;67795;1278;1016329;-63
2023/09/04 00:49:57;;;;;;;18.20;4.90;;;;;;;22.55;48.51;99810.32;67780;1278;1016445;-63
2023/09/04 00:52:59;;;;;;;15.00;5.10;;;;;;;22.56;48.46;99813.15;67804;1278;1015828;-64
2023/09/04 00:56:02;;;;;;;17.50;5.00;;;;;;;22.66;48.53;99814.61;67847;1278;1017253;-63
2023/09/04 00:59:05;;;;;;;17.30;4.90;;;;;;;22.64;48.53;99819.00;67799;1278;1016345;-64
2023/09/04 01:02:08;;;;;;;19.50;5.10;;;;;;;22.61;48.57;99818.03;67832;1278;1016498;-64
2023/09/04 01:05:11;;;;;;;15.50;4.60;;;;;;;22.66;48.55;99817.05;67801;1277;1016472;-65
2023/09/04 01:08:13;;;;;;;16.80;4.60;;;;;;;22.62;48.47;99816.48;67786;1277;1016478;-64
2023/09/04 01:11:15;;;;;;;14.60;4.90;;;;;;;22.69;48.35;99813.95;67785;1278;1016324;-64
2023/09/04 01:14:18;;;;;;;17.50;5.40;;;;;;;22.69;48.48;99816.38;67801;1278;1016259;-64
2023/09/04 01:17:20;;;;;;;16.50;5.60;;;;;;;22.70;48.43;99813.53;67824;1278;1018818;-64
2023/09/04 01:20:23;;;;;;;17.30;5.10;;;;;;;22.75;48.42;99808.74;67771;1278;1016450;-64
2023/09/04 01:23:26;;;;;;;18.60;5.30;;;;;;;22.67;48.62;99811.25;67827;1278;1016353;-64
2023/09/04 01:26:28;;;;;;;19.40;5.40;;;;;;;22.74;48.59;99814.71;67816;1278;1017727;-62
2023/09/04 01:29:30;;;;;;;18.80;5.10;;;;;;;22.78;48.75;99816.06;67816;1278;1016480;-64
2023/09/04 01:32:33;;;;;;;18.00;5.10;;;;;;;22.77;48.73;99818.33;67768;1278;1018526;-62
2023/09/04 01:35:35;;;;;;;;;;;;;;;22.81;48.67;99816.64;67771;1278;1016433;-65
2023/09/04 01:38:38;;;;;;;15.80;4.50;;;;;;;22.81;48.79;99816.67;67845;1278;1016487;-64
2023/09/04 01:41:40;;;;;;;15.00;4.80;;;;;;;22.81;48.57;99821.09;67821;1278;1016452;-64
2023/09/04 01:44:43;;;;;;;16.50;4.70;;;;;;;22.80;48.62;99820.84;67799;1278;1016384;-64
2023/09/04 01:47:46;;;;;;;14.90;4.50;;;;;;;22.65;48.90;99828.57;67775;1278;1015975;-65
2023/09/04 01:50:49;;;;;;;17.40;4.80;;;;;;;22.65;48.77;99834.13;67819;1278;1016269;-64
2023/09/04 01:53:51;;;;;;;;;;;;;;;22.71;48.54;99828.02;67774;1278;1016460;-65
2023/09/04 01:56:53;;;;;;;15.50;4.50;;;;;;;22.61;48.68;99821.58;67815;1278;1016848;-64
2023/09/04 01:59:56;;;;;;;17.50;4.80;;;;;;;22.53;49.07;99819.21;67822;1278;1016710;-64
2023/09/04 02:02:58;;;;;;;14.80;4.00;;;;;;;22.40;49.01;99814.90;67808;1278;1016084;-65
2023/09/04 02:06:01;;;;;;;;;;;;;;;22.09;49.34;99815.65;67855;1278;1016148;-64
2023/09/04 02:09:04;;;;;;;22.00;5.10;;;;;;;21.67;50.00;99816.83;67803;1278;1016235;-63
2023/09/04 02:12:06;;;;;;;18.00;4.50;;;;;;;21.47;50.25;99822.52;67829;1278;1016247;-64
2023/09/04 02:15:09;;;;;;;16.30;4.00;;;;;;;21.43;49.74;99817.52;67816;1278;1016469;-64
2023/09/04 02:18:11;;;;;;;21.00;4.80;;;;;;;21.31;49.88;99828.58;67778;1278;1016404;-64
2023/09/04 02:21:13;;;;;;;19.40;4.40;;;;;;;21.25;50.22;99834.08;67771;1278;1016388;-63
2023/09/04 02:24:16;;;;;;;20.20;5.00;;;;;;;21.28;50.24;99834.67;67780;1278;1016248;-63
2023/09/04 02:27:18;;;;;;;21.20;4.60;;;;;;;21.20;50.57;99833.14;67784;1278;1016295;-64
2023/09/04 02:30:21;;;;;;;20.00;4.70;;;;;;;21.05;50.73;99834.65;67801;1278;1016446;-64
2023/09/04 02:33:23;;;;;;;13.80;3.90;;;;;;;20.98;50.69;99838.25;67789;1278;1016462;-64
2023/09/04 02:36:26;;;;;;;10.70;3.50;;;;;;;20.78;51.65;99840.77;67716;1278;1016317;-64
2023/09/04 02:39:28;;;;;;;13.50;3.80;;;;;;;20.61;51.46;99843.39;67829;1278;1015930;-64
2023/09/04 02:42:31;;;;;;;25.30;5.40;;;;;;;20.64;51.33;99840.50;67828;1278;1016874;-64
2023/09/04 02:45:33;;;;;;;29.40;5.60;;;;;;;20.67;51.21;99841.48;67793;1278;1018420;-64
2023/09/04 02:48:35;;;;;;;21.20;4.50;;;;;;;20.63;51.21;99845.54;67760;1278;1016415;-63
2023/09/04 02:51:38;;;;;;;;;;;;;;;20.60;51.22;99856.45;67852;1278;1016091;-64
2023/09/04 02:54:40;;;;;;;12.40;3.80;;;;;;;20.50;51.56;99858.23;67824;1278;1016339;-64
2023/09/04 02:57:43;;;;;;;;;;;;;;;20.46;51.75;99863.15;67795;1278;1015979;-64
2023/09/04 03:00:45;;;;;;;13.60;4.00;;;;;;;20.57;51.75;99870.95;67793;1278;1016482;-64
2023/09/04 03:03:48;;;;;;;17.10;4.40;;;;;;;20.67;51.52;99872.09;67769;1278;1017077;-65
2023/09/04 03:06:50;;;;;;;15.20;4.20;;;;;;;20.51;52.65;99868.45;67787;1278;1016456;-64
2023/09/04 03:09:52;;;;;;;14.00;4.00;;;;;;;20.51;52.72;99870.35;67823;1278;1016756;-64
2023/09/04 03:12:55;;;;;;;16.90;4.60;;;;;;;20.58;52.93;99869.95;67813;1278;1016550;-64
2023/09/04 03:15:58;;;;;;;13.50;3.90;;;;;;;20.60;52.73;99875.89;67769;1278;1016284;-64
2023/09/04 03:19:00;;;;;;;15.10;4.00;;;;;;;20.73;52.56;99874.20;67799;1278;1016297;-64
2023/09/04 03:22:02;;;;;;;13.80;4.10;;;;;;;20.83;52.45;99866.60;67791;1278;1016398;-65
2023/09/04 03:25:05;;;;;;;15.30;4.00;;;;;;;20.92;52.20;99863.32;67797;1278;1016456;-63
2023/09/04 03:28:07;;;;;;;15.00;4.10;;;;;;;21.05;52.02;99862.73;67815;1278;1016718;-64
2023/09/04 03:31:10;;;;;;;15.50;4.30;;;;;;;21.03;52.14;99865.18;67774;1277;1015829;-64
2023/09/04 03:34:12;;;;;;;14.10;3.90;;;;;;;20.94;52.47;99857.86;67771;1278;1015779;-64
2023/09/04 03:37:14;;;;;;;14.40;4.20;;;;;;;20.90;52.67;99847.83;67822;1278;1017425;-65
2023/09/04 03:40:17;;;;;;;15.30;4.50;;;;;;;20.78;52.91;99858.19;67807;1278;1016317;-65
2023/09/04 03:43:19;;;;;;;15.80;4.10;;;;;;;20.74;53.01;99868.30;67782;1276;1016139;-64
2023/09/04 03:46:21;;;;;;;17.20;4.00;;;;;;;20.84;52.63;99867.05;67767;1278;1016158;-64
2023/09/04 03:49:24;;;;;;;;;;;;;;;20.70;53.03;99872.73;67743;1278;1017211;-64
2023/09/04 03:52:26;;;;;;;18.70;4.40;;;;;;;20.62;53.10;99871.05;67773;1278;1016460;-64
2023/09/04 03:55:29;;;;;;;16.10;4.20;;;;;;;20.59;53.11;99865.12;67799;1278;1016206;-64
2023/09/04 03:58:31;;;;;;;17.80;4.20;;;;;;;20.59;52.90;99861.34;67781;1278;1016427;-65
2023/09/04 04:01:34;;;;;;;15.10;4.00;;;;;;;20.62;52.72;99872.88;67755;1278;1016462;-64
2023/09/04 04:04:36;;;;;;;15.40;4.20;;;;;;;20.51;52.87;99877.30;67811;1278;1016485;-64
2023/09/04 04:07:39;;;;;;;16.20;4.40;;;;;;;20.54;52.94;99876.38;67766;1278;1016082;-64
2023/09/04 04:10:41;;;;;;;15.00;4.40;;;;;;;20.55;52.86;99876.96;67815;1278;1016491;-64
2023/09/04 04:13:44;;;;;;;13.80;4.20;;;;;;;20.59;52.85;99885.18;67761;1278;1016317;-64
2023/09/04 04:16:46;;;;;;;21.30;4.50;;;;;;;20.80;52.59;99900.98;67756;1278;1016263;-64
2023/09/04 04:19:49;;;;;;;19.20;4.40;;;;;;;20.94;52.21;99908.16;67773;1278;1015931;-64
2023/09/04 04:22:51;;;;;;;17.60;5.10;;;;;;;21.01;52.13;99914.83;67781;1277;1016470;-64
2023/09/04 04:25:54;;;;;;;19.40;5.10;;;;;;;21.16;51.79;99916.16;67793;1278;1016156;-64
2023/09/04 04:28:56;;;;;;;;;;;;;;;21.27;51.75;99913.41;67760;1278;1016424;-64
2023/09/04 04:31:58;;;;;;;19.00;4.80;;;;;;;21.41;51.58;99916.42;67807;1278;1016236;-64
2023/09/04 04:35:01;;;;;;;16.30;4.60;;;;;;;21.41;51.35;99917.33;67792;1278;1016389;-64
2023/09/04 04:38:03;;;;;;;15.20;4.10;;;;;;;21.27;51.58;99924.30;67783;1278;1016413;-64
2023/09/04 04:41:06;;;;;;;15.50;4.20;;;;;;;21.20;51.80;99934.31;67723;1278;1016327;-64
2023/09/04 04:44:08;;;;;;;14.00;4.10;;;;;;;21.14;51.79;99936.77;67774;1278;1016420;-63
2023/09/04 04:47:11;;;;;;;14.60;4.30;;;;;;;21.16;51.81;99935.01;67778;1278;1016146;-64
2023/09/04 04:50:13;;;;;;;15.30;4.30;;;;;;;21.24;51.77;99938.91;67788;1278;1016461;-64
2023/09/04 04:53:16;;;;;;;12.50;4.00;;;;;;;21.22;51.75;99936.60;67723;1278;1016449;-64
2023/09/04 04:56:18;;;;;;;14.80;4.40;;;;;;;21.22;51.92;99936.79;67695;1278;1015694;-64
2023/09/04 04:59:20;;;;;;;15.40;3.90;;;;;;;21.31;51.73;99940.64;67810;1278;1016459;-64
2023/09/04 05:02:23;;;;;;;16.50;4.00;;;;;;;21.40;51.75;99942.55;67772;1278;1016411;-64
2023/09/04 05:05:25;;;;;;;14.20;3.80;;;;;;;21.58;51.99;99937.58;67819;1278;1016278;-64
2023/09/04 05:08:28;;;;;;;13.60;3.90;;;;;;;21.70;52.05;99939.55;67742;1278;1016454;-64
2023/09/04 05:11:30;;;;;;;14.90;3.70;;;;;;;21.92;51.84;99942.05;67768;1278;1016793;-64
2023/09/04 05:14:33;;;;;;;14.30;4.30;;;;;;;21.89;51.88;99945.29;67784;1278;1016374;-64
2023/09/04 05:17:35;;;;;;;14.50;4.30;;;;;;;22.01;52.03;99945.09;67814;1278;1016087;-63
2023/09/04 05:20:37;;;;;;;15.10;4.40;;;;;;;22.13;51.64;99949.70;67789;1278;1016866;-64
2023/09/04 05:23:40;;;;;;;16.40;4.00;;;;;;;22.25;51.65;99959.45;67771;1278;1016458;-64
2023/09/04 05:26:42;;;;;;;13.00;3.90;;;;;;;22.38;51.37;99957.80;67764;1278;1016312;-64
2023/09/04 05:29:44;;;;;;;10.60;3.60;;;;;;;22.52;51.34;99957.04;67757;1278;1016525;-63
2023/09/04 05:32:47;;;;;;;14.10;3.70;;;;;;;22.48;51.19;99969.11;67811;1278;1016636;-64
2023/09/04 05:35:49;;;;;;;17.10;4.10;;;;;;;22.45;51.29;99966.42;67804;1278;1016327;-63
2023/09/04 05:38:52;;;;;;;13.20;3.80;;;;;;;22.63;50.93;99956.73;67778;1278;1016436;-65
2023/09/04 05:41:55;;;;;;;18.80;3.90;;;;;;;22.96;50.58;99959.16;67738;1278;1016418;-64
2023/09/04 05:44:57;;;;;;;14.40;3.90;;;;;;;23.13;50.13;99958.61;67739;1278;1018983;-65
2023/09/04 05:47:59;;;;;;;10.10;3.50;;;;;;;23.10;50.32;99958.02;67821;1278;1016503;-65
2023/09/04 05:51:02;;;;;;;18.60;5.00;;;;;;;23.23;50.64;99945.89;67786;1278;1016195;-65
2023/09/04 05:54:04;;;;;;;;;;;;;;;23.54;49.96;99951.80;67759;1278;1016155;-65
2023/09/04 05:57:07;;;;;;;13.70;3.70;;;;;;;23.77;50.07;99954.46;67772;1278;1018925;-64
2023/09/04 06:00:10;;;;;;;16.90;3.80;;;;;;;24.08;49.77;99957.27;67829;1278;1016438;-65
2023/09/04 06:03:12;;;;;;;14.50;4.10;;;;;;;24.48;48.45;99952.92;67763;1278;1016458;-65
2023/09/04 06:06:15;;;;;;;;;;;;;;;24.61;47.99;99957.33;67549;1278;1263668;-65
2023/09/04 06:09:18;;;;;;;18.80;4.60;;;;;;;24.57;47.82;99956.98;67767;1278;1016266;-65
2023/09/04 06:12:21;;;;;;;16.00;3.50;;;;;;;24.48;47.92;99951.42;67733;1278;1016451;-65
2023/09/04 06:15:23;;;;;;;16.00;3.50;;;;;;;24.41;47.79;99950.41;67796;1278;1016533;-64
2023/09/04 06:18:28;;;;;;;12.80;3.60;;;;;;;24.47;48.15;99949.97;67804;1278;1015850;-64
2023/09/04 06:21:30;;;;;;;18.20;3.90;;;;;;;24.71;47.68;99940.56;67769;1278;1016364;-65
2023/09/04 06:24:33;;;;;;;;;;;;;;;24.81;47.46;99944.55;67748;1278;1016880;-65
2023/09/04 06:27:35;;;;;;;;;;;;;;;24.94;47.79;99950.43;67807;1278;1016725;-64
2023/09/04 06:30:38;;;;;;;17.60;4.50;;;;;;;25.04;46.83;99960.42;67775;1278;1016054;-65
2023/09/04 06:33:40;;;;;;;13.50;3.70;;;;;;;24.89;46.77;99960.03;67756;1278;1016389;-65
2023/09/04 06:36:42;;;;;;;;;;;;;;;24.72;47.51;99954.46;67729;1278;1016485;-65
2023/09/04 06:39:45;;;;;;;15.00;4.10;;;;;;;24.71;47.26;99956.90;67766;1278;1016167;-64
2023/09/04 06:42:47;;;;;;;15.00;3.90;;;;;;;24.77;47.34;99956.12;67767;1278;1015760;-65
2023/09/04 06:45:50;;;;;;;17.20;4.10;;;;;;;24.89;47.02;99958.24;67782;1278;1016416;-65
2023/09/04 06:48:52;;;;;;;;;;;;;;;24.85;47.39;99960.07;67794;1278;1016227;-64
2023/09/04 06:51:55;;;;;;;;;;;;;;;24.86;47.64;99966.17;67729;1278;1016461;-65
2023/09/04 06:54:57;;;;;;;17.70;4.30;;;;;;;24.77;47.09;99979.98;67711;1278;1015901;-65
2023/09/04 06:57:59;;;;;;;;;;;;;;;24.78;46.99;99990.30;67801;1278;1015923;-64
2023/09/04 07:01:02;;;;;;;15.00;4.30;;;;;;;24.83;47.17;99997.11;67775;1256;1016367;-64
2023/09/04 07:04:04;;;;;;;;;;;;;;;24.97;47.01;100001.93;67782;1278;1020059;-64
2023/09/04 07:07:07;;;;;;;15.20;3.90;;;;;;;25.06;47.06;100004.61;67726;1278;1016608;-64
2023/09/04 07:10:09;;;;;;;;;;;;;;;25.32;46.53;100009.79;67772;1278;1017979;-65
2023/09/04 07:13:12;;;;;;;16.80;4.20;;;;;;;25.38;47.07;100003.13;67792;1278;1016430;-65
2023/09/04 07:16:14;;;;;;;15.00;4.30;;;;;;;25.37;46.83;100006.03;67760;1278;1016220;-65
2023/09/04 07:19:16;;;;;;;17.50;4.50;;;;;;;25.63;46.23;100007.00;67793;1278;1016313;-64
2023/09/04 07:22:19;;;;;;;;;;;;;;;25.82;45.88;100007.60;67757;1278;1016429;-65
2023/09/04 07:25:21;;;;;;;19.20;4.70;;;;;;;25.91;45.52;100018.65;67726;1278;1016496;-65
2023/09/04 07:28:24;;;;;;;;;;;;;;;25.52;46.36;100025.44;67741;1278;1016945;-65
2023/09/04 07:31:26;;;;;;;14.40;4.30;;;;;;;25.72;46.21;100026.79;67810;1278;1016358;-63
2023/09/04 07:34:28;;;;;;;;;;;;;;;25.84;45.90;100036.13;67778;1278;1016457;-65
2023/09/04 07:37:31;;;;;;;15.30;4.50;;;;;;;25.78;46.07;100041.41;67739;1278;1016495;-65
2023/09/04 07:40:34;;;;;;;16.90;4.80;;;;;;;25.76;46.37;100040.73;67763;1278;1016211;-64
2023/09/04 07:43:36;;;;;;;15.80;5.00;;;;;;;26.20;45.73;100042.83;67788;1278;1016358;-65
2023/09/04 07:46:38;;;;;;;17.30;4.90;;;;;;;26.58;44.81;100044.13;67782;1278;1016514;-65
2023/09/04 07:49:41;;;;;;;;;;;;;;;26.65;44.75;100035.08;67770;1278;1016870;-65
2023/09/04 07:52:43;;;;;;;;;;;;;;;26.51;45.41;100029.72;67713;1278;1016478;-65
2023/09/04 07:55:46;;;;;;;21.40;4.90;;;;;;;26.44;45.01;100029.71;67752;1278;1016201;-64
2023/09/04 07:58:48;;;;;;;;;;;;;;;26.53;45.20;100025.31;67779;1278;1018325;-64
2023/09/04 08:01:50;;;;;;;17.60;4.50;;;;;;;26.83;44.95;100027.61;67774;1278;1016572;-64
2023/09/04 08:04:53;;;;;;;;;;;;;;;26.80;45.00;100033.84;67809;1278;1016438;-65
2023/09/04 08:07:55;;;;;;;14.40;4.10;;;;;;;26.71;44.91;100037.21;67768;1278;1019401;-65
2023/09/04 08:10:57;;;;;;;21.10;4.90;;;;;;;26.85;45.09;100033.23;67767;1278;1015708;-65
2023/09/04 08:14:00;;;;;;;18.00;4.80;;;;;;;26.98;45.02;100034.21;67728;1278;1016490;-64
2023/09/04 08:17:02;;;;;;;15.60;4.30;;;;;;;27.08;44.79;100027.02;67807;1278;1016444;-65
2023/09/04 08:20:05;;;;;;;17.90;4.50;;;;;;;27.20;44.31;100036.94;67808;1278;1016472;-65
2023/09/04 08:23:07;;;;;;;16.80;4.70;;;;;;;27.11;44.09;100037.67;67791;1278;1016315;-64
2023/09/04 08:26:10;;;;;;;17.90;4.30;;;;;;;27.17;44.35;100043.47;67775;1278;1016579;-64
2023/09/04 08:29:12;;;;;;;14.80;4.40;;;;;;;27.21;44.12;100044.02;67783;1278;1017619;-65
2023/09/04 08:32:14;;;;;;;13.70;4.20;;;;;;;27.87;43.59;100035.05;67796;1278;1016467;-65
2023/09/04 08:35:17;;;;;;;18.60;4.80;;;;;;;28.20;42.59;100037.30;67835;1278;1016585;-64
2023/09/04 08:38:20;;;;;;;18.40;4.60;;;;;;;28.36;42.81;100033.09;67767;1278;1016380;-65
2023/09/04 08:41:22;;;;;;;12.50;4.00;;;;;;;28.90;42.80;100035.26;67814;1278;1016992;-65
2023/09/04 08:44:25;;;;;;;17.70;4.10;;;;;;;28.99;41.69;100040.00;67777;1278;1016101;-65
2023/09/04 08:47:27;;;;;;;11.90;3.70;;;;;;;28.44;41.23;100039.08;67805;1278;1016339;-64
2023/09/04 08:50:29;;;;;;;14.30;4.20;;;;;;;28.11;42.12;100033.00;67766;1278;1016290;-64
2023/09/04 08:53:32;;;;;;;16.70;4.10;;;;;;;28.12;42.15;100029.48;67787;1278;1016472;-65
2023/09/04 08:56:34;;;;;;;13.20;4.50;;;;;;;28.51;41.97;100029.38;67759;1278;1016130;-64
2023/09/04 08:59:37;;;;;;;13.50;4.20;;;;;;;28.90;41.54;100028.12;67793;1278;1016881;-62
2023/09/04 09:02:39;;;;;;;13.40;3.80;;;;;;;29.40;41.17;100023.37;67813;1278;1016487;-65
2023/09/04 09:05:42;;;;;;;15.40;3.90;;;;;;;28.97;40.34;100025.40;67778;1278;1016454;-62
2023/09/04 09:08:44;;;;;;;13.10;3.50;;;;;;;28.79;41.03;100019.31;67778;1278;1016359;-64
2023/09/04 09:11:53;;;;;;;11.70;3.80;;;;;;;28.93;39.71;100021.47;67817;1278;1016480;-64
2023/09/04 09:14:56;;;;;;;14.30;3.70;;;;;;;29.15;39.95;100012.54;67780;1278;1016787;-64
2023/09/04 09:17:58;;;;;;;12.60;4.30;;;;;;;29.42;40.24;100009.94;67764;1278;1016746;-64
2023/09/04 09:21:01;;;;;;;13.70;3.80;;;;;;;29.62;39.38;100007.73;67804;1278;1016451;-64
2023/09/04 09:24:03;;;;;;;15.80;4.10;;;;;;;29.70;39.29;100012.86;67807;1278;1016500;-65
2023/09/04 09:27:06;;;;;;;14.80;4.10;;;;;;;29.98;39.34;100013.16;67799;1278;1015972;-65
2023/09/04 09:30:08;;;;;;;12.40;3.80;;;;;;;30.05;38.41;100014.83;67752;1278;1016485;-64
2023/09/04 09:33:12;;;;;;;12.20;3.40;;;;;;;29.98;37.75;100024.73;67776;1278;1017894;-64
2023/09/04 09:36:15;;;;;;;14.90;4.00;;;;;;;29.81;38.47;100021.91;67781;1278;1016290;-63
2023/09/04 09:39:17;;;;;;;13.70;3.90;;;;;;;29.96;38.32;100020.79;67810;1278;1016488;-63
2023/09/04 09:42:21;;;;;;;12.80;3.60;;;;;;;30.48;37.69;100026.62;67793;1278;1016300;-65
2023/09/04 09:45:24;;;;;;;14.30;3.80;;;;;;;30.24;36.17;100023.66;67788;1278;1016404;-65
2023/09/04 09:48:26;;;;;;;12.00;3.60;;;;;;;30.12;36.89;100018.00;67747;1278;1016725;-64
2023/09/04 09:51:29;;;;;;;13.60;3.80;;;;;;;30.03;37.24;100022.27;67802;1278;1016171;-64
2023/09/04 09:54:31;;;;;;;13.50;3.80;;;;;;;29.76;37.24;100020.29;67838;1278;1016091;-65
2023/09/04 09:57:34;;;;;;;17.70;4.50;;;;;;;29.54;37.83;100018.60;67758;1278;1016420;-64
2023/09/04 10:00:36;;;;;;;13.70;4.30;;;;;;;29.49;38.31;100017.68;67773;1278;1016446;-64
2023/09/04 10:03:39;;;;;;;16.00;4.30;;;;;;;29.28;38.20;100016.35;67771;1278;1016431;-63
2023/09/04 10:06:42;;;;;;;14.70;3.70;;;;;;;29.31;37.85;100014.59;67812;1278;1016523;-64
2023/09/04 10:09:44;;;;;;;13.20;3.90;;;;;;;29.22;37.90;100012.16;67777;1278;1015845;-64
2023/09/04 10:12:47;;;;;;;15.30;4.20;;;;;;;29.34;36.73;100008.73;67777;1278;1016457;-64
2023/09/04 10:15:49;;;;;;;12.70;4.00;;;;;;;29.76;36.81;100009.73;67779;1278;1016944;-64
2023/09/04 10:18:53;;;;;;;11.40;3.60;;;;;;;30.11;35.77;100006.02;67789;1278;1016416;-64
2023/09/04 10:21:55;;;;;;;11.10;3.70;;;;;;;29.67;36.30;100005.33;67827;1278;1016269;-64
2023/09/04 10:24:58;;;;;;;17.30;4.80;;;;;;;29.34;36.84;100004.21;67824;1278;1016415;-64
2023/09/04 10:28:00;;;;;;;15.90;4.30;;;;;;;29.14;36.62;100010.64;67760;1278;1016362;-65
2023/09/04 10:31:03;;;;;;;11.00;3.80;;;;;;;29.20;36.52;100010.54;67763;1278;1017031;-64
2023/09/04 10:34:05;;;;;;;12.90;4.10;;;;;;;29.39;35.43;100006.94;67855;1278;1016442;-64
2023/09/04 10:37:08;;;;;;;14.30;4.00;;;;;;;29.75;35.51;100003.23;67839;1278;1016464;-64
2023/09/04 10:40:11;;;;;;;11.00;3.90;;;;;;;30.24;34.99;100000.20;67835;1278;1016405;-64
2023/09/04 10:43:13;;;;;;;11.20;3.70;;;;;;;31.10;35.31;99990.34;67780;1278;1018011;-64
2023/09/04 10:46:16;;;;;;;13.00;4.00;;;;;;;32.01;35.03;99990.64;67818;1278;1016420;-64
2023/09/04 10:49:19;;;;;;;10.90;3.30;;;;;;;32.69;32.78;99996.41;67791;1278;1015767;-65
2023/09/04 10:52:21;;;;;;;11.10;3.60;;;;;;;31.97;31.42;99999.88;67801;1278;1016417;-64
2023/09/04 10:55:25;;;;;;;11.20;3.20;;;;;;;31.30;32.38;100004.84;67839;1278;1015852;-64
2023/09/04 10:58:27;;;;;;;11.30;3.30;;;;;;;31.58;32.86;100000.64;67769;1278;1016243;-65
2023/09/04 11:01:30;;;;;;;11.70;3.70;;;;;;;31.78;31.68;99996.36;67814;1278;1016659;-65
2023/09/04 11:04:33;;;;;;;8.30;3.00;;;;;;;31.82;32.46;99988.23;67825;1278;1016469;-65
2023/09/04 11:07:35;;;;;;;11.60;3.20;;;;;;;31.64;31.57;99999.77;67785;1278;1016423;-65
2023/09/04 11:10:38;;;;;;;10.70;3.20;;;;;;;31.64;31.65;100003.32;67783;1278;1016319;-65
2023/09/04 11:13:40;;;;;;;9.50;2.90;;;;;;;31.74;31.72;100004.85;67853;1278;1016468;-64
2023/09/04 11:16:48;;;;;;;8.70;2.90;;;;;;;31.84;31.45;99993.08;67796;1278;1016658;-64
2023/09/04 11:19:51;;;;;;;10.10;2.90;;;;;;;31.99;31.55;99989.27;67839;1278;1016382;-65
2023/09/04 11:22:53;;;;;;;9.00;3.00;;;;;;;32.24;30.82;99981.23;67806;1278;1016281;-65
2023/09/04 11:25:56;;;;;;;9.20;2.80;;;;;;;32.30;30.89;99981.36;67766;1278;1016454;-64
2023/09/04 11:28:59;;;;;;;9.60;2.90;;;;;;;32.29;30.22;99991.77;67820;1278;1016296;-65
2023/09/04 11:32:02;;;;;;;9.50;3.00;;;;;;;31.72;29.78;99997.59;67772;1278;1016371;-65
2023/09/04 11:35:04;;;;;;;14.20;3.30;;;;;;;31.07;30.63;99998.23;67823;1278;1016390;-65
2023/09/04 11:38:07;;;;;;;12.70;3.20;;;;;;;31.20;31.02;100000.99;67826;1278;1016291;-65
2023/09/04 11:41:09;;;;;;;9.10;2.80;;;;;;;31.78;31.27;99997.63;67817;1278;1016489;-65
2023/09/04 11:44:11;;;;;;;9.90;3.10;;;;;;;32.10;30.40;99994.73;67778;1278;1016808;-65
2023/09/04 11:47:14;;;;;;;10.70;3.20;;;;;;;31.46;30.45;99998.80;67772;1278;1016433;-65
2023/09/04 11:50:16;;;;;;;10.90;2.80;;;;;;;31.14;30.33;99999.18;67794;1278;1016398;-65
2023/09/04 11:53:19;;;;;;;14.30;3.30;;;;;;;31.71;30.21;99993.46;67831;1278;1016901;-64
2023/09/04 11:56:21;;;;;;;10.10;3.10;;;;;;;32.40;29.94;99989.18;67785;1278;1016516;-65
2023/09/04 11:59:24;;;;;;;13.80;3.50;;;;;;;33.02;29.73;99989.34;67769;1278;1016017;-65
2023/09/04 12:02:26;;;;;;;10.70;3.20;;;;;;;33.15;30.00;99994.84;67801;1278;1018419;-65
2023/09/04 12:05:29;;;;;;;11.50;3.40;;;;;;;33.08;29.85;99998.06;67797;1278;1016652;-64
2023/09/04 12:08:31;;;;;;;11.30;3.40;;;;;;;32.78;29.77;99994.61;67823;1278;1016502;-65
2023/09/04 12:11:33;;;;;;;12.20;3.60;;;;;;;32.68;29.65;99991.73;67776;1278;1016259;-65
2023/09/04 12:14:36;;;;;;;13.10;3.30;;;;;;;32.79;30.07;99982.91;67798;1278;1016185;-65
2023/09/04 12:17:38;;;;;;;10.90;3.20;;;;;;;33.13;29.02;99973.35;67751;1278;1016450;-63
2023/09/04 12:20:41;;;;;;;10.80;3.00;;;;;;;33.25;29.15;99972.95;67802;1278;1016403;-65
2023/09/04 12:23:44;;;;;;;11.80;3.60;;;;;;;33.50;29.32;99968.71;67824;1278;1016732;-65
2023/09/04 12:26:47;;;;;;;11.30;3.40;;;;;;;32.87;29.10;99974.11;67811;1278;1016264;-65
2023/09/04 12:29:49;;;;;;;13.60;3.60;;;;;;;32.16;29.54;99975.27;67820;1278;1016442;-64
2023/09/04 12:32:52;;;;;;;15.00;3.50;;;;;;;31.63;30.26;99980.52;67796;1278;1016083;-64
2023/09/04 12:35:54;;;;;;;11.30;3.30;;;;;;;31.40;30.95;99978.28;67776;1278;1016931;-65
2023/09/04 12:38:56;;;;;;;13.50;3.60;;;;;;;31.23;30.90;99977.30;67811;1278;1016206;-65
2023/09/04 12:41:59;;;;;;;12.80;3.30;;;;;;;31.30;31.04;99982.08;67782;1278;1016581;-64
2023/09/04 12:45:01;;;;;;;11.80;3.50;;;;;;;31.86;29.98;99975.59;67810;1278;1016529;-65
2023/09/04 12:48:04;;;;;;;11.20;3.00;;;;;;;32.39;29.23;99967.30;67814;1278;1016481;-65
2023/09/04 12:51:06;;;;;;;10.60;3.30;;;;;;;32.54;30.14;99969.33;67803;1278;1016305;-65
2023/09/04 12:54:09;;;;;;;13.70;3.20;;;;;;;32.39;29.46;99973.77;67776;1278;1016508;-66
2023/09/04 12:57:11;;;;;;;14.70;3.70;;;;;;;32.10;30.27;99969.51;67813;1278;1016867;-65
2023/09/04 13:00:14;;;;;;;12.80;3.30;;;;;;;32.27;29.87;99965.98;67831;1278;1016446;-65
2023/09/04 13:03:16;;;;;;;11.20;3.80;;;;;;;32.42;29.39;99964.11;67837;1278;1016231;-65
2023/09/04 13:06:19;;;;;;;12.40;3.10;;;;;;;32.54;29.33;99962.19;67794;1278;1016190;-63
2023/09/04 13:09:21;;;;;;;11.40;3.30;;;;;;;32.49;29.20;99959.36;67774;1278;1016371;-64
2023/09/04 13:12:23;;;;;;;12.60;3.40;;;;;;;32.69;29.53;99953.88;67810;1278;1019061;-65
2023/09/04 13:15:26;;;;;;;11.00;3.10;;;;;;;33.08;29.05;99950.04;67794;1278;1018869;-65
2023/09/04 13:18:28;;;;;;;10.50;3.10;;;;;;;33.52;28.77;99946.11;67835;1278;1017073;-65
2023/09/04 13:21:31;;;;;;;11.10;3.20;;;;;;;33.72;28.45;99944.48;67799;1278;1016546;-65
2023/09/04 13:24:34;;;;;;;12.00;3.00;;;;;;;32.98;29.24;99943.85;67831;1278;1016447;-64
2023/09/04 13:27:36;;;;;;;11.40;3.40;;;;;;;32.58;30.01;99944.61;67849;1278;1016817;-65
2023/09/04 13:30:38;;;;;;;11.10;3.10;;;;;;;32.69;30.39;99939.71;67771;1278;1016467;-65
2023/09/04 13:33:41;;;;;;;11.70;3.20;;;;;;;33.22;29.84;99936.91;67774;1278;1016797;-64
2023/09/04 13:36:43;;;;;;;12.00;3.60;;;;;;;33.40;29.18;99940.24;67806;1278;1016473;-65
2023/09/04 13:39:46;;;;;;;10.50;3.20;;;;;;;33.06;28.66;99942.89;67825;1278;1016477;-65
2023/09/04 13:42:48;;;;;;;11.10;3.20;;;;;;;32.66;28.84;99944.23;67814;1278;1016250;-64
2023/09/04 13:45:50;;;;;;;12.10;3.40;;;;;;;32.67;29.43;99944.35;67824;1278;1016326;-64
2023/09/04 13:48:53;;;;;;;11.60;3.30;;;;;;;32.76;28.73;99947.07;67801;1278;1017394;-64
2023/09/04 13:51:55;;;;;;;9.40;3.10;;;;;;;32.83;28.21;99938.16;67776;1278;1016082;-65
2023/09/04 13:54:58;;;;;;;10.20;3.40;;;;;;;33.08;28.15;99943.36;67787;1278;1016433;-64